Time;durP1;ratioP1;P1;durP2;ratioP2;P2;SDS_P1;SDS_P2;PMS_P1;PMS_P2;Temp;Humidity;BMP_temperature;BMP_pressure;BME280_temperature;BME280_humidity;BME280_pressure;Samples;Min_cycle;Max_cycle;Signal;HPM_P1;HPM_P2
2020/12/27 00:00:24;;;;;;;19.05;10.75;;;;;;;1.32;83.06;100715.12;1658829;86;21194;-79
2020/12/27 00:03:29;;;;;;;21.37;11.03;;;;;;;1.34;82.89;100710.50;1657978;86;21173;-79
2020/12/27 00:06:35;;;;;;;15.98;10.00;;;;;;;1.35;82.60;100719.81;1658325;86;21244;-79
2020/12/27 00:09:41;;;;;;;12.33;9.35;;;;;;;1.36;82.31;100720.67;1658988;86;21300;-79
2020/12/27 00:12:47;;;;;;;16.55;10.43;;;;;;;1.36;82.24;100719.33;1658588;86;21455;-79
2020/12/27 00:15:53;;;;;;;17.73;9.93;;;;;;;1.35;82.22;100712.22;1658909;86;21185;-79
2020/12/27 00:18:59;;;;;;;16.95;8.53;;;;;;;1.36;82.17;100709.89;1658865;86;21295;-79
2020/12/27 00:22:04;;;;;;;16.17;9.20;;;;;;;1.36;82.15;100712.59;1658294;86;21225;-79
2020/12/27 00:25:11;;;;;;;16.55;9.18;;;;;;;1.39;82.20;100705.64;1657491;86;21308;-79
2020/12/27 00:28:17;;;;;;;17.37;10.78;;;;;;;1.42;82.04;100701.40;1658830;86;21722;-79
2020/12/27 00:31:24;;;;;;;13.40;9.18;;;;;;;1.42;81.86;100694.66;1658705;86;21555;-79
2020/12/27 00:34:29;;;;;;;10.55;8.00;;;;;;;1.43;81.66;100688.29;1657726;86;21265;-79
2020/12/27 00:37:40;;;;;;;14.65;8.68;;;;;;;1.46;81.67;100688.08;1662835;85;21245;-79
2020/12/27 00:40:46;;;;;;;11.70;8.03;;;;;;;1.45;81.66;100693.94;1675103;85;21320;-79
2020/12/27 00:43:54;;;;;;;14.80;8.68;;;;;;;1.46;81.56;100706.47;1674666;85;21280;-79
2020/12/27 00:47:01;;;;;;;14.35;9.20;;;;;;;1.45;81.42;100715.98;1675368;85;21853;-79
2020/12/27 00:50:06;;;;;;;11.48;8.40;;;;;;;1.37;81.39;100713.85;1675314;85;21858;-79
2020/12/27 00:53:12;;;;;;;13.68;8.33;;;;;;;1.35;81.47;100710.87;1674266;85;21272;-79
2020/12/27 00:56:17;;;;;;;11.90;7.70;;;;;;;1.36;81.65;100701.31;1675178;85;21323;-79
2020/12/27 00:59:31;;;;;;;12.20;7.20;;;;;;;1.37;81.63;100702.21;1675003;85;21327;-79
2020/12/27 01:02:38;;;;;;;12.23;8.65;;;;;;;1.33;81.67;100708.78;1675130;85;21367;-78
2020/12/27 01:06:03;;;;;;;14.35;9.05;;;;;;;1.28;81.74;100708.61;1675281;85;21196;-79
2020/12/27 01:09:09;;;;;;;14.20;8.38;;;;;;;1.24;81.94;100704.41;1675176;85;21796;-79
2020/12/27 01:12:15;;;;;;;14.03;8.00;;;;;;;1.23;82.01;100710.77;1675018;85;21336;-78
2020/12/27 01:15:21;;;;;;;12.37;7.70;;;;;;;1.21;82.06;100710.48;1657552;85;21201;-79
2020/12/27 01:18:29;;;;;;;10.80;7.53;;;;;;;1.14;82.04;100711.41;1658862;86;21748;-79
2020/12/27 01:21:41;;;;;;;12.40;8.30;;;;;;;1.09;82.22;100715.39;1675209;85;21216;-79
2020/12/27 01:24:46;;;;;;;16.48;8.88;;;;;;;1.09;82.46;100720.30;1658408;86;21197;-79
2020/12/27 01:27:50;;;;;;;12.90;8.73;;;;;;;1.09;82.46;100731.08;1674420;85;21336;-79
2020/12/27 01:30:56;;;;;;;16.12;7.78;;;;;;;1.03;82.41;100730.12;1658533;86;21220;-79
2020/12/27 01:34:02;;;;;;;13.55;8.18;;;;;;;0.98;82.58;100738.52;1674802;85;21335;-78
2020/12/27 01:37:07;;;;;;;13.85;9.00;;;;;;;0.96;82.70;100743.65;1658529;86;21269;-78
2020/12/27 01:40:14;;;;;;;9.38;6.87;;;;;;;0.91;82.75;100748.00;1681822;85;21240;-78
2020/12/27 01:43:19;;;;;;;13.95;8.35;;;;;;;0.88;82.89;100744.16;1685002;85;21330;-78
2020/12/27 01:46:26;;;;;;;12.98;7.55;;;;;;;0.86;83.02;100744.76;1685168;85;21327;-78
2020/12/27 01:49:34;;;;;;;13.78;7.03;;;;;;;0.88;83.20;100744.16;1685025;85;21850;-77
2020/12/27 01:52:39;;;;;;;11.25;7.78;;;;;;;0.91;83.25;100762.81;1685050;84;21894;-78
2020/12/27 01:55:49;;;;;;;12.33;8.33;;;;;;;0.86;83.17;100763.61;1683665;85;21252;-78
2020/12/27 01:58:55;;;;;;;12.53;7.55;;;;;;;0.84;83.37;100764.19;1684271;85;21339;-78
2020/12/27 02:02:00;;;;;;;11.65;7.65;;;;;;;0.88;83.43;100779.66;1684925;85;21327;-79
2020/12/27 02:05:13;;;;;;;12.33;7.60;;;;;;;0.91;83.42;100773.59;1683318;85;21334;-79
2020/12/27 02:08:20;;;;;;;11.80;8.33;;;;;;;0.96;83.39;100774.14;1684797;85;21323;-78
2020/12/27 02:11:28;;;;;;;11.40;8.08;;;;;;;0.96;83.17;100770.10;1684911;85;21335;-78
2020/12/27 02:14:34;;;;;;;12.70;7.97;;;;;;;0.96;83.16;100778.19;1683574;85;21409;-78
2020/12/27 02:17:40;;;;;;;11.18;7.87;;;;;;;0.98;83.22;100776.23;1667373;85;21906;-78
2020/12/27 02:20:48;;;;;;;11.65;7.72;;;;;;;1.04;83.30;100768.25;1684628;85;21736;-78
2020/12/27 02:23:56;;;;;;;10.55;7.53;;;;;;;1.08;83.10;100775.13;1683744;85;21828;-78
2020/12/27 02:27:10;;;;;;;12.13;7.85;;;;;;;1.11;83.03;100784.36;1683771;85;21327;-79
2020/12/27 02:30:17;;;;;;;14.23;8.28;;;;;;;1.09;82.93;100783.61;1683730;84;21347;-79
2020/12/27 02:33:23;;;;;;;14.18;7.60;;;;;;;1.07;83.03;100792.75;1684916;85;21311;-78
2020/12/27 02:36:31;;;;;;;12.58;7.10;;;;;;;1.07;83.02;100794.09;1684953;85;21871;-78
2020/12/27 02:39:38;;;;;;;14.53;8.20;;;;;;;1.04;82.94;100791.14;1684302;85;21891;-77
2020/12/27 02:42:45;;;;;;;11.43;7.97;;;;;;;1.01;83.00;100811.55;1685107;85;21323;-79
2020/12/27 02:45:52;;;;;;;14.98;8.80;;;;;;;0.98;83.06;100822.52;1684243;85;21196;-79
2020/12/27 02:49:01;;;;;;;14.03;8.50;;;;;;;0.93;83.18;100819.27;1685011;85;21367;-78
2020/12/27 02:52:09;;;;;;;18.25;7.70;;;;;;;0.91;83.37;100814.48;1683578;84;21216;-78
2020/12/27 02:55:18;;;;;;;11.55;7.47;;;;;;;0.95;83.69;100828.12;1684400;85;21355;-78
2020/12/27 02:58:24;;;;;;;21.45;8.23;;;;;;;1.01;83.77;100829.06;1685461;85;21295;-78
2020/12/27 03:01:30;;;;;;;11.73;7.70;;;;;;;1.04;83.67;100827.52;1685134;85;21209;-78
2020/12/27 03:04:40;;;;;;;12.60;7.92;;;;;;;1.09;83.61;100835.29;1683409;85;21318;-78
2020/12/27 03:07:47;;;;;;;14.83;8.35;;;;;;;1.12;83.60;100835.92;1684979;85;21217;-78
2020/12/27 03:10:55;;;;;;;11.97;7.30;;;;;;;1.13;83.53;100851.15;1683361;85;21310;-78
2020/12/27 03:14:02;;;;;;;11.28;7.25;;;;;;;1.14;83.56;100846.13;1683476;84;21323;-78
2020/12/27 03:17:15;;;;;;;15.13;7.92;;;;;;;1.16;83.43;100851.41;1639511;85;21319;-78
2020/12/27 03:20:25;;;;;;;12.40;7.50;;;;;;;1.10;83.29;100851.34;1684781;85;21318;-78
2020/12/27 03:23:32;;;;;;;13.32;8.00;;;;;;;1.03;83.25;100850.01;1685028;85;21806;-78
2020/12/27 03:26:39;;;;;;;18.27;10.82;;;;;;;0.98;83.24;100863.78;1683666;85;21268;-78
2020/12/27 03:29:45;;;;;;;15.23;10.40;;;;;;;0.97;83.32;100861.20;1684840;84;21335;-77
2020/12/27 03:32:53;;;;;;;17.42;10.30;;;;;;;0.98;83.46;100856.19;1685198;85;21321;-79
2020/12/27 03:36:00;;;;;;;13.83;9.23;;;;;;;1.00;83.48;100859.17;1684266;85;22006;-79
2020/12/27 03:39:17;;;;;;;14.90;8.93;;;;;;;1.02;83.41;100862.62;1684969;85;21334;-79
2020/12/27 03:42:28;;;;;;;12.05;7.87;;;;;;;1.06;83.46;100857.04;1681419;85;21823;-79
2020/12/27 03:45:39;;;;;;;17.27;8.90;;;;;;;1.07;83.46;100860.11;1684733;84;21354;-78
2020/12/27 03:48:49;;;;;;;15.13;9.05;;;;;;;1.11;83.40;100862.98;1685082;85;21236;-79
2020/12/27 03:52:14;;;;;;;11.35;8.05;;;;;;;1.13;83.32;100863.28;1683321;85;21149;-78
2020/12/27 03:55:22;;;;;;;14.93;9.18;;;;;;;1.15;83.06;100865.86;1682630;84;21378;-79
2020/12/27 03:58:46;;;;;;;14.50;8.60;;;;;;;1.14;82.90;100876.27;1685094;85;21347;-79
2020/12/27 04:02:12;;;;;;;15.85;8.25;;;;;;;1.17;83.02;100879.59;1684866;85;21359;-79
2020/12/27 04:05:18;;;;;;;16.62;8.70;;;;;;;1.17;82.88;100895.76;1685086;85;21153;-79
2020/12/27 04:08:26;;;;;;;13.60;9.58;;;;;;;1.17;82.88;100890.37;1685043;85;21319;-78
2020/12/27 04:11:32;;;;;;;15.10;9.95;;;;;;;1.18;82.92;100900.69;1683823;85;21216;-78
2020/12/27 04:14:37;;;;;;;14.13;8.08;;;;;;;1.18;82.90;100910.98;1683730;85;21314;-78
2020/12/27 04:17:44;;;;;;;14.28;7.35;;;;;;;1.16;82.96;100918.29;1683823;85;21236;-79
2020/12/27 04:20:52;;;;;;;16.80;9.40;;;;;;;1.13;83.08;100917.17;1684944;85;21377;-79
2020/12/27 04:23:58;;;;;;;17.55;9.40;;;;;;;1.10;83.14;100923.23;1685151;85;21342;-80
2020/12/27 04:27:05;;;;;;;12.63;8.55;;;;;;;1.06;83.19;100937.38;1684230;85;21315;-79
2020/12/27 04:30:10;;;;;;;17.05;9.25;;;;;;;1.08;83.27;100941.31;1684900;85;21334;-79
2020/12/27 04:33:24;;;;;;;16.67;9.20;;;;;;;1.08;83.14;100944.86;1683396;85;21197;-79
2020/12/27 04:36:44;;;;;;;18.95;10.70;;;;;;;1.05;83.16;100941.53;1633684;85;21283;-79
2020/12/27 04:39:51;;;;;;;19.90;11.43;;;;;;;1.03;83.17;100945.65;1685023;85;21315;-79
2020/12/27 04:42:59;;;;;;;21.87;11.53;;;;;;;1.02;83.10;100952.88;1678960;85;21359;-79
2020/12/27 04:46:11;;;;;;;17.70;11.60;;;;;;;1.02;83.02;100965.48;1674805;85;21256;-79
2020/12/27 04:49:17;;;;;;;28.60;13.25;;;;;;;0.99;82.88;100961.66;1675232;85;21354;-79
2020/12/27 04:52:30;;;;;;;18.25;11.75;;;;;;;0.92;82.83;100965.70;1656679;85;21378;-78
2020/12/27 04:55:37;;;;;;;25.20;13.40;;;;;;;0.87;82.85;100978.59;1675318;85;21315;-79
2020/12/27 04:58:44;;;;;;;23.15;11.43;;;;;;;0.79;83.04;100977.73;1656074;85;21212;-79
2020/12/27 05:01:53;;;;;;;18.95;12.37;;;;;;;0.72;83.29;100977.27;1658193;86;21367;-80
2020/12/27 05:05:12;;;;;;;21.33;11.85;;;;;;;0.67;83.55;100973.14;1675187;85;21322;-79
2020/12/27 05:08:12;;;;;;;19.40;11.28;;;;;;;0.64;83.79;100974.18;1649301;86;21323;-79
2020/12/27 05:11:26;;;;;;;16.42;11.60;;;;;;;0.62;83.99;100987.38;1673179;86;22231;-79
2020/12/27 05:14:37;;;;;;;17.80;11.48;;;;;;;0.62;84.18;100994.11;1671993;86;21862;-79
2020/12/27 05:17:44;;;;;;;19.32;11.80;;;;;;;0.61;84.36;101001.32;1672283;86;21566;-79
2020/12/27 05:20:52;;;;;;;21.87;12.80;;;;;;;0.61;84.42;101000.42;1673040;86;21756;-79
2020/12/27 05:23:59;;;;;;;21.02;13.08;;;;;;;0.59;84.44;101005.91;1672962;86;21312;-78
2020/12/27 05:27:08;;;;;;;23.50;14.03;;;;;;;0.59;84.46;101015.82;1672537;86;21351;-78
2020/12/27 05:30:38;;;;;;;23.85;14.90;;;;;;;0.54;84.45;101017.45;1591479;90;21455;-79
2020/12/27 05:34:01;;;;;;;19.23;12.50;;;;;;;0.48;84.49;101024.57;1672782;86;21860;-79
2020/12/27 05:37:16;;;;;;;21.33;12.40;;;;;;;0.41;84.60;101035.31;1635542;86;21335;-78
2020/12/27 05:40:28;;;;;;;21.45;13.83;;;;;;;0.36;84.74;101038.28;1634749;86;21323;-79
2020/12/27 05:43:44;;;;;;;21.62;12.73;;;;;;;0.32;84.90;101047.50;1672381;85;21394;-79
2020/12/27 05:46:52;;;;;;;19.32;12.20;;;;;;;0.31;85.11;101056.53;1671040;86;21316;-78
2020/12/27 05:49:58;;;;;;;21.77;12.90;;;;;;;0.32;85.31;101058.75;1672572;86;21142;-79
2020/12/27 05:53:06;;;;;;;21.55;13.25;;;;;;;0.35;85.50;101058.09;1655063;86;21897;-79
2020/12/27 05:56:15;;;;;;;27.17;13.98;;;;;;;0.39;85.59;101058.30;1672830;86;21797;-79
2020/12/27 05:59:23;;;;;;;21.82;13.48;;;;;;;0.43;85.58;101064.36;1672852;86;21926;-79
2020/12/27 06:02:48;;;;;;;22.10;14.70;;;;;;;0.44;85.53;101067.44;1671421;86;21573;-78
2020/12/27 06:06:10;;;;;;;27.30;14.60;;;;;;;0.43;85.52;101073.30;1672915;86;21220;-78
2020/12/27 06:09:16;;;;;;;32.45;15.95;;;;;;;0.41;85.56;101071.65;1671668;86;21370;-78
2020/12/27 06:12:22;;;;;;;23.55;14.13;;;;;;;0.39;85.56;101083.86;1672849;86;21319;-79
2020/12/27 06:15:41;;;;;;;27.35;17.07;;;;;;;0.37;85.55;101087.59;1672840;86;21351;-79
2020/12/27 06:18:49;;;;;;;31.65;18.42;;;;;;;0.31;85.52;101086.14;1663524;86;21387;-79
2020/12/27 06:22:14;;;;;;;26.27;16.48;;;;;;;0.28;85.61;101105.63;1655762;86;21277;-79
2020/12/27 06:25:24;;;;;;;26.05;15.70;;;;;;;0.23;85.65;101105.91;1671058;86;21319;-79
2020/12/27 06:28:29;;;;;;;29.87;16.52;;;;;;;0.18;85.76;101109.34;1672330;86;21348;-79
2020/12/27 06:31:43;;;;;;;31.48;17.45;;;;;;;0.14;85.88;101101.95;1671521;86;21907;-79
2020/12/27 06:34:53;;;;;;;24.40;15.53;;;;;;;0.12;85.96;101109.23;1667612;86;21775;-80
2020/12/27 06:37:59;;;;;;;28.87;15.90;;;;;;;0.12;86.08;101109.23;1671812;86;21934;-79
2020/12/27 06:41:17;;;;;;;27.02;16.05;;;;;;;0.11;86.20;101116.92;1672798;86;21204;-79
2020/12/27 06:44:53;;;;;;;29.10;17.42;;;;;;;0.12;86.29;101111.92;1670745;85;21926;-79
2020/12/27 06:48:16;;;;;;;29.07;18.77;;;;;;;0.15;86.48;101121.66;1671463;86;21296;-79
2020/12/27 06:51:52;;;;;;;31.48;17.35;;;;;;;0.19;86.61;101118.70;1672557;86;21197;-79
2020/12/27 06:55:00;;;;;;;35.58;18.20;;;;;;;0.22;86.66;101129.26;1670646;86;21327;-79
2020/12/27 06:58:31;;;;;;;42.70;19.30;;;;;;;0.24;86.65;101135.44;1671501;86;21244;-79
2020/12/27 07:01:36;;;;;;;38.58;18.87;;;;;;;0.28;86.65;101133.41;1672751;86;21209;-79
2020/12/27 07:04:44;;;;;;;30.23;17.00;;;;;;;0.32;86.66;101126.89;1671635;86;21368;-78
2020/12/27 07:07:55;;;;;;;32.75;20.37;;;;;;;0.36;86.64;101128.92;1672823;86;21327;-78
2020/12/27 07:11:02;;;;;;;39.70;22.50;;;;;;;0.40;86.53;101135.86;1672793;86;21304;-79
2020/12/27 07:14:07;;;;;;;34.03;20.25;;;;;;;0.42;86.43;101142.88;1655024;86;21315;-78
2020/12/27 07:17:13;;;;;;;40.05;19.32;;;;;;;0.46;86.35;101145.77;1672685;86;21257;-78
2020/12/27 07:20:20;;;;;;;29.87;17.35;;;;;;;0.51;86.29;101148.19;1672483;85;21259;-78
2020/12/27 07:23:35;;;;;;;34.95;19.12;;;;;;;0.57;86.21;101157.75;1655235;86;21894;-78
2020/12/27 07:26:42;;;;;;;31.23;16.90;;;;;;;0.61;86.14;101168.25;1672682;86;21257;-79
2020/12/27 07:29:49;;;;;;;29.87;16.95;;;;;;;0.67;85.90;101169.22;1671919;86;21323;-79
2020/12/27 07:32:56;;;;;;;28.62;16.75;;;;;;;0.74;85.74;101171.05;1671540;86;21214;-79
2020/12/27 07:36:17;;;;;;;31.52;18.00;;;;;;;0.81;85.54;101172.43;1655565;86;21202;-79
2020/12/27 07:39:22;;;;;;;30.67;16.80;;;;;;;0.88;85.28;101183.69;1672418;86;21358;-78
2020/12/27 07:42:39;;;;;;;26.80;15.98;;;;;;;0.90;85.08;101192.08;1672937;86;21146;-79
2020/12/27 07:45:45;;;;;;;29.32;17.45;;;;;;;0.96;84.91;101190.34;1674788;85;21334;-79
2020/12/27 07:48:51;;;;;;;24.98;15.60;;;;;;;1.03;84.75;101197.56;1682711;84;21909;-79
2020/12/27 07:51:58;;;;;;;24.98;14.68;;;;;;;1.09;84.41;101201.25;1681542;85;21854;-79
2020/12/27 07:55:04;;;;;;;25.57;13.98;;;;;;;1.11;83.92;101210.58;1681516;85;21875;-79
2020/12/27 07:58:13;;;;;;;29.57;17.02;;;;;;;1.11;83.64;101214.62;1681713;85;21207;-79
2020/12/27 08:01:26;;;;;;;23.60;15.63;;;;;;;1.13;83.35;101210.88;1681554;85;21256;-79
2020/12/27 08:04:32;;;;;;;33.45;16.70;;;;;;;1.20;83.11;101214.05;1682589;85;21248;-78
2020/12/27 08:07:39;;;;;;;23.83;13.43;;;;;;;1.24;82.91;101219.65;1681617;85;21370;-79
2020/12/27 08:10:50;;;;;;;31.35;14.55;;;;;;;1.29;82.78;101220.23;1681631;85;21379;-78
2020/12/27 08:14:06;;;;;;;26.20;16.30;;;;;;;1.31;82.58;101207.99;1682908;85;21352;-79
2020/12/27 08:17:11;;;;;;;26.37;14.10;;;;;;;1.33;82.47;101211.00;1682828;85;21326;-79
2020/12/27 08:20:17;;;;;;;25.45;14.40;;;;;;;1.36;82.42;101218.87;1650366;85;21957;-78
2020/12/27 08:23:23;;;;;;;35.43;19.15;;;;;;;1.38;81.95;101224.19;1682901;85;21192;-78
2020/12/27 08:26:29;;;;;;;40.28;21.37;;;;;;;1.41;81.67;101222.63;1682745;85;21330;-78
2020/12/27 08:29:34;;;;;;;61.68;30.52;;;;;;;1.47;81.38;101230.36;1682494;85;21247;-79
2020/12/27 08:32:40;;;;;;;29.55;17.15;;;;;;;1.50;80.81;101228.31;1681344;85;21326;-79
2020/12/27 08:35:49;;;;;;;54.30;24.30;;;;;;;1.54;80.59;101229.00;1682185;84;21335;-79
2020/12/27 08:39:05;;;;;;;85.45;31.90;;;;;;;1.56;80.34;101236.53;1682990;85;21518;-78
2020/12/27 08:42:21;;;;;;;51.45;24.25;;;;;;;1.60;79.76;101237.17;1682617;85;21327;-78
2020/12/27 08:45:27;;;;;;;25.32;13.30;;;;;;;1.61;79.17;101228.14;1681513;85;21315;-79
2020/12/27 08:48:41;;;;;;;20.05;12.28;;;;;;;1.65;78.79;101226.51;1678187;85;21359;-78
2020/12/27 08:51:48;;;;;;;19.32;13.15;;;;;;;1.69;78.55;101229.86;1679425;85;21236;-78
2020/12/27 08:55:06;;;;;;;24.50;13.58;;;;;;;1.71;78.39;101226.11;1680640;85;21319;-78
2020/12/27 08:58:11;;;;;;;20.32;12.95;;;;;;;1.75;78.42;101224.09;1680536;85;21328;-78
2020/12/27 09:01:31;;;;;;;17.35;11.03;;;;;;;1.79;78.07;101225.15;1679521;85;21406;-79
2020/12/27 09:04:37;;;;;;;18.92;11.08;;;;;;;1.82;77.51;101221.86;1680577;85;21331;-78
2020/12/27 09:07:49;;;;;;;17.98;10.20;;;;;;;1.80;77.20;101216.57;1680669;85;21314;-78
2020/12/27 09:10:56;;;;;;;20.65;11.85;;;;;;;1.83;76.64;101220.41;1679626;85;21284;-78
2020/12/27 09:14:03;;;;;;;19.25;11.80;;;;;;;1.88;76.16;101222.80;1680633;85;21249;-79
2020/12/27 09:17:11;;;;;;;18.10;9.98;;;;;;;1.91;75.77;101215.39;1680692;85;21308;-78
2020/12/27 09:20:17;;;;;;;17.55;10.32;;;;;;;1.94;75.44;101221.09;1680355;85;21363;-78
2020/12/27 09:23:24;;;;;;;12.45;7.90;;;;;;;1.98;75.07;101215.88;1680704;85;21783;-79
2020/12/27 09:26:31;;;;;;;14.00;9.15;;;;;;;2.01;74.39;101222.41;1679952;85;21291;-79
2020/12/27 09:29:36;;;;;;;21.12;10.70;;;;;;;2.02;74.18;101230.88;1680687;85;21303;-79
2020/12/27 09:32:42;;;;;;;14.10;9.75;;;;;;;2.02;74.24;101231.77;1680678;85;21343;-79
2020/12/27 09:35:47;;;;;;;14.05;8.75;;;;;;;2.05;73.87;101220.76;1680713;85;21327;-79
2020/12/27 09:38:54;;;;;;;14.15;8.60;;;;;;;2.12;73.23;101227.99;1680616;85;21204;-79
2020/12/27 09:41:59;;;;;;;27.75;15.03;;;;;;;2.12;72.48;101238.79;1679379;85;21351;-78
2020/12/27 09:45:05;;;;;;;18.07;8.65;;;;;;;2.15;72.31;101235.01;1679133;85;21325;-79
2020/12/27 09:48:10;;;;;;;14.87;10.50;;;;;;;2.21;71.74;101232.80;1680078;85;21891;-78
2020/12/27 09:51:24;;;;;;;16.62;8.98;;;;;;;2.23;71.71;101230.84;1682181;85;21383;-78
2020/12/27 09:54:29;;;;;;;14.33;8.75;;;;;;;2.27;71.37;101235.08;1681259;85;21224;-78
2020/12/27 09:57:36;;;;;;;17.75;9.98;;;;;;;2.32;70.37;101232.56;1681335;84;21240;-78
2020/12/27 10:00:42;;;;;;;13.72;8.83;;;;;;;2.36;70.51;101226.86;1682203;85;21248;-78
2020/12/27 10:03:47;;;;;;;15.00;8.83;;;;;;;2.37;70.46;101231.78;1681205;85;21216;-79
2020/12/27 10:06:52;;;;;;;13.93;8.70;;;;;;;2.39;70.64;101226.64;1682859;85;21311;-78
2020/12/27 10:09:58;;;;;;;17.95;11.08;;;;;;;2.37;70.35;101230.42;1682806;85;21323;-78
2020/12/27 10:13:04;;;;;;;16.25;9.93;;;;;;;2.38;70.11;101229.45;1681368;84;21375;-79
2020/12/27 10:16:11;;;;;;;14.55;9.73;;;;;;;2.40;70.35;101225.70;1682764;85;21764;-78
2020/12/27 10:19:16;;;;;;;41.83;19.62;;;;;;;2.45;70.16;101234.84;1682761;85;21252;-78
2020/12/27 10:22:22;;;;;;;23.92;13.10;;;;;;;2.50;70.05;101225.95;1681642;85;21399;-79
2020/12/27 10:25:28;;;;;;;16.07;10.60;;;;;;;2.52;69.90;101228.91;1682837;85;21314;-79
2020/12/27 10:28:38;;;;;;;15.50;9.55;;;;;;;2.51;70.00;101227.67;1681399;84;21339;-79
2020/12/27 10:31:41;;;;;;;16.62;10.20;;;;;;;2.50;69.63;101217.84;1681416;84;21331;-79
2020/12/27 10:34:48;;;;;;;16.95;11.15;;;;;;;2.51;69.70;101226.33;1682291;85;21374;-78
2020/12/27 10:37:53;;;;;;;20.62;12.13;;;;;;;2.51;70.12;101231.23;1681543;85;21767;-78
2020/12/27 10:40:59;;;;;;;19.07;10.80;;;;;;;2.51;70.13;101223.63;1682324;85;21249;-79
2020/12/27 10:44:05;;;;;;;15.48;10.63;;;;;;;2.51;69.84;101224.48;1682460;85;21642;-79
2020/12/27 10:47:15;;;;;;;21.15;9.85;;;;;;;2.53;69.48;101223.89;1681699;84;21893;-79
2020/12/27 10:50:21;;;;;;;15.35;9.78;;;;;;;2.55;69.69;101219.27;1679701;85;21288;-78
2020/12/27 10:53:28;;;;;;;20.75;12.43;;;;;;;2.56;69.68;101227.74;1680668;85;21363;-79
2020/12/27 10:56:34;;;;;;;16.85;10.72;;;;;;;2.57;70.39;101234.01;1679389;85;21867;-78
2020/12/27 10:59:40;;;;;;;13.95;9.78;;;;;;;2.58;70.53;101237.08;1679324;85;21869;-79
2020/12/27 11:02:45;;;;;;;14.47;10.03;;;;;;;2.58;69.83;101229.47;1679561;85;21296;-79
2020/12/27 11:05:51;;;;;;;15.45;9.75;;;;;;;2.55;69.56;101227.86;1680608;85;21859;-78
2020/12/27 11:08:56;;;;;;;16.90;8.53;;;;;;;2.53;69.35;101224.38;1680645;85;21335;-78
2020/12/27 11:12:04;;;;;;;11.63;7.17;;;;;;;2.50;68.68;101235.41;1679365;84;21827;-78
2020/12/27 11:15:10;;;;;;;13.30;7.87;;;;;;;2.52;67.74;101234.80;1680547;85;21253;-78
2020/12/27 11:18:15;;;;;;;12.93;8.15;;;;;;;2.52;67.46;101236.16;1679701;85;21371;-78
2020/12/27 11:21:21;;;;;;;12.43;7.15;;;;;;;2.51;67.20;101241.18;1679326;85;21327;-78
2020/12/27 11:24:27;;;;;;;10.78;5.85;;;;;;;2.49;66.63;101240.40;1680633;85;21510;-78
2020/12/27 11:27:32;;;;;;;13.40;8.30;;;;;;;2.48;65.91;101235.97;1680878;85;21312;-78
2020/12/27 11:30:38;;;;;;;14.83;9.28;;;;;;;2.41;66.12;101230.61;1661380;85;21299;-78
2020/12/27 11:33:45;;;;;;;16.37;7.05;;;;;;;2.39;66.67;101234.74;1679435;85;21362;-78
2020/12/27 11:36:55;;;;;;;10.10;6.70;;;;;;;2.41;67.05;101238.71;1680398;85;21248;-78
2020/12/27 11:40:01;;;;;;;10.58;6.92;;;;;;;2.42;65.79;101237.73;1680330;85;21795;-78
2020/12/27 11:43:07;;;;;;;12.43;6.83;;;;;;;2.44;65.25;101240.70;1679828;85;21748;-78
2020/12/27 11:46:13;;;;;;;16.60;10.88;;;;;;;2.47;65.27;101234.25;1680601;85;21609;-78
2020/12/27 11:49:19;;;;;;;21.93;12.75;;;;;;;2.48;66.03;101241.38;1679689;85;21799;-78
2020/12/27 11:52:26;;;;;;;13.50;7.90;;;;;;;2.50;66.14;101230.00;1680256;85;21371;-79
2020/12/27 11:55:31;;;;;;;7.78;5.87;;;;;;;2.52;65.62;101233.45;1680593;85;21783;-79
2020/12/27 11:58:39;;;;;;;8.85;5.97;;;;;;;2.51;64.43;101239.83;1680679;85;21319;-79
2020/12/27 12:01:45;;;;;;;8.85;6.15;;;;;;;2.49;63.69;101240.40;1680680;85;21931;-79
2020/12/27 12:04:52;;;;;;;11.30;6.50;;;;;;;2.49;63.34;101239.94;1680232;85;21216;-79
2020/12/27 12:07:58;;;;;;;8.63;5.83;;;;;;;2.45;64.07;101239.76;1680578;85;21311;-79
2020/12/27 12:11:05;;;;;;;11.50;6.12;;;;;;;2.44;63.69;101238.48;1661666;85;21900;-78
2020/12/27 12:14:10;;;;;;;9.28;6.75;;;;;;;2.42;63.43;101234.55;1679427;85;21331;-79
2020/12/27 12:17:17;;;;;;;8.28;6.15;;;;;;;2.39;63.76;101245.55;1680735;85;21301;-78
2020/12/27 12:23:46;;;;;;;9.00;3.95;;;;;;;2.35;62.31;101242.66;1679915;85;21398;-78
2020/12/27 12:26:52;;;;;;;8.08;5.72;;;;;;;2.32;61.37;101247.41;1680724;85;21311;-78
2020/12/27 12:29:58;;;;;;;7.83;4.80;;;;;;;2.29;62.79;101244.42;1680641;85;21311;-78
2020/12/27 12:33:04;;;;;;;7.28;4.58;;;;;;;2.24;62.32;101252.81;1680316;85;21315;-77
2020/12/27 12:36:10;;;;;;;9.30;5.60;;;;;;;2.21;61.76;101256.19;1680620;85;21193;-78
2020/12/27 12:39:16;;;;;;;13.15;5.47;;;;;;;2.19;62.33;101255.44;1679336;85;21319;-78
2020/12/27 12:42:22;;;;;;;8.80;5.45;;;;;;;2.17;62.38;101251.50;1680707;85;21204;-79
2020/12/27 12:45:29;;;;;;;9.00;5.87;;;;;;;2.17;62.45;101252.85;1680573;85;21327;-79
2020/12/27 12:48:36;;;;;;;6.60;4.97;;;;;;;2.16;63.27;101256.48;1680409;85;21323;-78
2020/12/27 12:51:42;;;;;;;9.88;7.25;;;;;;;2.13;62.85;101260.76;1677833;85;21339;-79
2020/12/27 12:54:50;;;;;;;9.85;6.53;;;;;;;2.11;63.65;101266.72;1671646;86;21820;-79
2020/12/27 12:57:57;;;;;;;12.63;7.53;;;;;;;2.08;63.65;101269.64;1672741;86;21862;-78
2020/12/27 13:01:04;;;;;;;13.83;7.83;;;;;;;2.04;64.48;101260.86;1672691;86;21327;-79
2020/12/27 13:04:10;;;;;;;12.43;8.18;;;;;;;2.01;65.04;101273.67;1671903;86;21253;-78
2020/12/27 13:07:17;;;;;;;16.00;8.00;;;;;;;1.98;65.56;101273.41;1673115;86;21326;-78
2020/12/27 13:10:23;;;;;;;17.70;9.83;;;;;;;1.96;66.25;101271.76;1672756;86;21319;-79
2020/12/27 13:13:29;;;;;;;13.70;9.28;;;;;;;1.93;66.79;101270.59;1672743;86;21249;-79
2020/12/27 13:16:35;;;;;;;15.43;10.53;;;;;;;1.91;67.56;101273.88;1672788;86;21311;-79
2020/12/27 13:19:41;;;;;;;17.73;11.03;;;;;;;1.86;68.32;101274.66;1672777;86;21209;-79
2020/12/27 13:22:47;;;;;;;18.65;10.00;;;;;;;1.80;68.99;101277.27;1672663;86;21366;-78
2020/12/27 13:25:54;;;;;;;17.62;9.73;;;;;;;1.76;69.37;101284.68;1672778;86;21327;-78
2020/12/27 13:29:01;;;;;;;20.85;12.13;;;;;;;1.70;69.47;101279.68;1673008;86;21874;-78
2020/12/27 13:32:06;;;;;;;17.32;10.38;;;;;;;1.67;69.63;101289.30;1672806;86;21378;-79
2020/12/27 13:35:11;;;;;;;21.52;11.70;;;;;;;1.66;69.80;101284.02;1671783;86;21918;-78
2020/12/27 13:38:17;;;;;;;20.15;11.43;;;;;;;1.64;69.83;101290.83;1671695;86;21260;-79
2020/12/27 13:41:23;;;;;;;27.10;19.23;;;;;;;1.59;69.73;101295.64;1672756;86;21358;-79
2020/12/27 13:44:28;;;;;;;25.68;14.90;;;;;;;1.49;69.71;101295.34;1672245;86;21340;-79
2020/12/27 13:47:35;;;;;;;24.57;15.95;;;;;;;1.37;69.79;101296.59;1672821;86;21852;-79
2020/12/27 13:50:42;;;;;;;27.82;16.75;;;;;;;1.27;69.96;101298.95;1672364;86;21241;-78
2020/12/27 13:53:47;;;;;;;24.35;14.45;;;;;;;1.21;70.10;101296.16;1672376;85;21331;-79
2020/12/27 13:56:53;;;;;;;28.42;14.98;;;;;;;1.13;70.31;101301.61;1672756;86;21887;-79
2020/12/27 13:59:59;;;;;;;20.17;11.15;;;;;;;1.04;70.46;101304.41;1672784;86;22023;-78
2020/12/27 14:03:05;;;;;;;30.60;12.25;;;;;;;0.94;70.47;101303.18;1671532;86;21299;-79
2020/12/27 14:06:11;;;;;;;21.25;9.80;;;;;;;0.85;70.25;101307.76;1672322;86;21351;-79
2020/12/27 14:09:17;;;;;;;27.60;11.08;;;;;;;0.74;69.98;101302.53;1671148;86;21380;-79
2020/12/27 14:12:23;;;;;;;20.50;11.40;;;;;;;0.64;69.72;101291.91;1671217;86;21851;-79
2020/12/27 14:15:29;;;;;;;25.62;10.18;;;;;;;0.58;69.80;101290.92;1671197;86;21315;-79
2020/12/27 14:18:36;;;;;;;24.82;11.30;;;;;;;0.57;69.99;101288.33;1672824;86;21288;-78
2020/12/27 14:21:42;;;;;;;32.63;12.30;;;;;;;0.55;70.06;101279.45;1672337;86;22561;-79
2020/12/27 14:24:47;;;;;;;26.82;12.58;;;;;;;0.48;70.49;101277.61;1672440;86;21355;-79
2020/12/27 14:27:54;;;;;;;35.08;12.65;;;;;;;0.41;71.04;101274.86;1672842;86;21331;-79
2020/12/27 14:30:58;;;;;;;28.52;14.03;;;;;;;0.39;71.43;101271.41;1672762;86;21736;-78
2020/12/27 14:34:04;;;;;;;42.45;14.10;;;;;;;0.39;71.93;101275.44;1672876;86;21319;-78